sensor_id;sensor_type;location;lat;lon;timestamp;temperature;humidity
11043;DHT22;5574;48.786;10.120;2023-06-24T00:00:08;17.80;99.90
11043;DHT22;5574;48.786;10.120;2023-06-24T00:02:37;17.80;99.90
11043;DHT22;5574;48.786;10.120;2023-06-24T00:05:04;17.80;99.90
11043;DHT22;5574;48.786;10.120;2023-06-24T00:07:33;17.80;99.90
11043;DHT22;5574;48.786;10.120;2023-06-24T00:10:11;17.80;99.90
11043;DHT22;5574;48.786;10.120;2023-06-24T00:12:38;17.80;99.90
11043;DHT22;5574;48.786;10.120;2023-06-24T00:15:07;17.80;99.90
11043;DHT22;5574;48.786;10.120;2023-06-24T00:17:35;17.80;99.90
11043;DHT22;5574;48.786;10.120;2023-06-24T00:20:02;17.70;99.90
11043;DHT22;5574;48.786;10.120;2023-06-24T00:22:32;17.70;99.90
11043;DHT22;5574;48.786;10.120;2023-06-24T00:24:59;17.70;99.90
11043;DHT22;5574;48.786;10.120;2023-06-24T00:27:27;17.70;99.90
11043;DHT22;5574;48.786;10.120;2023-06-24T00:29:54;17.80;99.90
11043;DHT22;5574;48.786;10.120;2023-06-24T00:32:21;17.80;99.90
11043;DHT22;5574;48.786;10.120;2023-06-24T00:34:47;17.80;99.90
11043;DHT22;5574;48.786;10.120;2023-06-24T00:37:15;17.70;99.90
11043;DHT22;5574;48.786;10.120;2023-06-24T00:39:42;17.70;99.90
11043;DHT22;5574;48.786;10.120;2023-06-24T00:42:09;17.70;99.90
11043;DHT22;5574;48.786;10.120;2023-06-24T00:44:37;17.70;99.90
11043;DHT22;5574;48.786;10.120;2023-06-24T00:47:05;17.70;99.90
11043;DHT22;5574;48.786;10.120;2023-06-24T00:49:33;17.60;99.90
11043;DHT22;5574;48.786;10.120;2023-06-24T00:52:00;17.60;99.90
11043;DHT22;5574;48.786;10.120;2023-06-24T00:54:26;17.70;99.90
11043;DHT22;5574;48.786;10.120;2023-06-24T00:56:57;17.70;99.90
11043;DHT22;5574;48.786;10.120;2023-06-24T00:59:26;17.70;99.90
11043;DHT22;5574;48.786;10.120;2023-06-24T01:01:56;17.70;99.90
11043;DHT22;5574;48.786;10.120;2023-06-24T01:04:23;17.60;99.90
11043;DHT22;5574;48.786;10.120;2023-06-24T01:06:50;17.60;99.90
11043;DHT22;5574;48.786;10.120;2023-06-24T01:09:17;17.60;99.90
11043;DHT22;5574;48.786;10.120;2023-06-24T01:11:44;17.60;99.90
11043;DHT22;5574;48.786;10.120;2023-06-24T01:14:10;17.60;99.90
11043;DHT22;5574;48.786;10.120;2023-06-24T01:16:42;17.60;99.90
11043;DHT22;5574;48.786;10.120;2023-06-24T01:19:39;17.60;99.90
11043;DHT22;5574;48.786;10.120;2023-06-24T01:22:19;17.60;99.90
11043;DHT22;5574;48.786;10.120;2023-06-24T01:25:06;17.60;99.90
11043;DHT22;5574;48.786;10.120;2023-06-24T01:27:51;17.50;99.90
11043;DHT22;5574;48.786;10.120;2023-06-24T01:30:49;17.50;99.90
11043;DHT22;5574;48.786;10.120;2023-06-24T01:33:23;17.40;99.90
11043;DHT22;5574;48.786;10.120;2023-06-24T01:35:51;17.40;99.90
11043;DHT22;5574;48.786;10.120;2023-06-24T01:38:23;17.40;99.90
11043;DHT22;5574;48.786;10.120;2023-06-24T01:40:51;17.40;99.90
11043;DHT22;5574;48.786;10.120;2023-06-24T01:43:19;17.30;99.90
11043;DHT22;5574;48.786;10.120;2023-06-24T01:45:50;17.30;99.90
11043;DHT22;5574;48.786;10.120;2023-06-24T01:48:22;17.20;99.90
11043;DHT22;5574;48.786;10.120;2023-06-24T01:50:57;17.20;99.90
11043;DHT22;5574;48.786;10.120;2023-06-24T01:53:27;17.10;99.90
11043;DHT22;5574;48.786;10.120;2023-06-24T01:55:55;17.10;99.90
11043;DHT22;5574;48.786;10.120;2023-06-24T01:58:24;17.10;99.90
11043;DHT22;5574;48.786;10.120;2023-06-24T02:00:52;17.10;99.90
11043;DHT22;5574;48.786;10.120;2023-06-24T02:03:21;17.10;99.90
11043;DHT22;5574;48.786;10.120;2023-06-24T02:05:48;17.00;99.90
11043;DHT22;5574;48.786;10.120;2023-06-24T02:08:16;16.90;99.90
11043;DHT22;5574;48.786;10.120;2023-06-24T02:10:43;16.80;99.90
11043;DHT22;5574;48.786;10.120;2023-06-24T02:13:11;16.80;99.90
11043;DHT22;5574;48.786;10.120;2023-06-24T02:15:39;16.70;99.90
11043;DHT22;5574;48.786;10.120;2023-06-24T02:18:07;16.70;99.90
11043;DHT22;5574;48.786;10.120;2023-06-24T02:20:36;16.60;99.90
11043;DHT22;5574;48.786;10.120;2023-06-24T02:23:04;16.50;99.90
11043;DHT22;5574;48.786;10.120;2023-06-24T02:25:34;16.60;99.90
11043;DHT22;5574;48.786;10.120;2023-06-24T02:28:01;16.50;99.90
11043;DHT22;5574;48.786;10.120;2023-06-24T02:30:28;16.50;99.90
11043;DHT22;5574;48.786;10.120;2023-06-24T02:32:55;16.50;99.90
11043;DHT22;5574;48.786;10.120;2023-06-24T02:35:22;16.40;99.90
11043;DHT22;5574;48.786;10.120;2023-06-24T02:37:50;16.40;99.90
11043;DHT22;5574;48.786;10.120;2023-06-24T02:40:17;16.30;99.90
11043;DHT22;5574;48.786;10.120;2023-06-24T02:42:44;16.40;99.90
11043;DHT22;5574;48.786;10.120;2023-06-24T02:45:11;16.40;99.90
11043;DHT22;5574;48.786;10.120;2023-06-24T02:47:40;16.30;99.90
11043;DHT22;5574;48.786;10.120;2023-06-24T02:50:08;16.30;99.90
11043;DHT22;5574;48.786;10.120;2023-06-24T02:52:36;16.10;99.90
11043;DHT22;5574;48.786;10.120;2023-06-24T02:55:05;16.20;99.90
11043;DHT22;5574;48.786;10.120;2023-06-24T02:57:33;16.10;99.90
11043;DHT22;5574;48.786;10.120;2023-06-24T03:00:01;16.10;99.90
11043;DHT22;5574;48.786;10.120;2023-06-24T03:02:29;16.00;99.90
11043;DHT22;5574;48.786;10.120;2023-06-24T03:04:56;16.00;99.90
11043;DHT22;5574;48.786;10.120;2023-06-24T03:07:24;16.00;99.90
11043;DHT22;5574;48.786;10.120;2023-06-24T03:09:52;16.00;99.90
11043;DHT22;5574;48.786;10.120;2023-06-24T03:12:20;15.90;99.90
11043;DHT22;5574;48.786;10.120;2023-06-24T03:14:46;15.90;99.90
11043;DHT22;5574;48.786;10.120;2023-06-24T03:17:13;15.80;99.90
11043;DHT22;5574;48.786;10.120;2023-06-24T03:19:41;15.80;99.90
11043;DHT22;5574;48.786;10.120;2023-06-24T03:22:08;15.80;99.90
11043;DHT22;5574;48.786;10.120;2023-06-24T03:24:34;15.80;99.90
11043;DHT22;5574;48.786;10.120;2023-06-24T03:27:01;15.80;99.90
11043;DHT22;5574;48.786;10.120;2023-06-24T03:29:29;15.90;99.90
11043;DHT22;5574;48.786;10.120;2023-06-24T03:31:56;15.90;99.90
11043;DHT22;5574;48.786;10.120;2023-06-24T03:34:22;15.90;99.90
11043;DHT22;5574;48.786;10.120;2023-06-24T03:36:49;15.90;99.90
11043;DHT22;5574;48.786;10.120;2023-06-24T03:39:16;15.80;99.90
11043;DHT22;5574;48.786;10.120;2023-06-24T03:41:43;15.90;99.90
11043;DHT22;5574;48.786;10.120;2023-06-24T03:44:09;15.80;99.90
11043;DHT22;5574;48.786;10.120;2023-06-24T03:46:37;15.80;99.90
11043;DHT22;5574;48.786;10.120;2023-06-24T03:49:04;15.80;99.90
11043;DHT22;5574;48.786;10.120;2023-06-24T03:51:31;15.80;99.90
11043;DHT22;5574;48.786;10.120;2023-06-24T03:53:58;15.80;99.90
11043;DHT22;5574;48.786;10.120;2023-06-24T03:56:25;15.70;99.90
11043;DHT22;5574;48.786;10.120;2023-06-24T03:58:52;15.70;99.90
11043;DHT22;5574;48.786;10.120;2023-06-24T04:01:18;15.60;99.90
11043;DHT22;5574;48.786;10.120;2023-06-24T04:03:46;15.60;99.90
11043;DHT22;5574;48.786;10.120;2023-06-24T04:06:13;15.60;99.90
11043;DHT22;5574;48.786;10.120;2023-06-24T04:08:40;15.60;99.90
11043;DHT22;5574;48.786;10.120;2023-06-24T04:11:08;15.60;99.90
11043;DHT22;5574;48.786;10.120;2023-06-24T04:13:35;15.60;99.90
11043;DHT22;5574;48.786;10.120;2023-06-24T04:16:02;15.60;99.90
11043;DHT22;5574;48.786;10.120;2023-06-24T04:18:29;15.70;99.90
11043;DHT22;5574;48.786;10.120;2023-06-24T04:20:57;15.70;99.90
11043;DHT22;5574;48.786;10.120;2023-06-24T04:23:23;15.70;99.90
11043;DHT22;5574;48.786;10.120;2023-06-24T04:25:50;15.70;99.90
11043;DHT22;5574;48.786;10.120;2023-06-24T04:28:17;15.70;99.90
11043;DHT22;5574;48.786;10.120;2023-06-24T04:30:43;15.60;99.90
11043;DHT22;5574;48.786;10.120;2023-06-24T04:33:10;15.60;99.90
11043;DHT22;5574;48.786;10.120;2023-06-24T04:35:37;15.70;99.90
11043;DHT22;5574;48.786;10.120;2023-06-24T04:38:05;15.70;99.90
11043;DHT22;5574;48.786;10.120;2023-06-24T04:40:31;15.70;99.90
11043;DHT22;5574;48.786;10.120;2023-06-24T04:42:58;15.70;99.90
11043;DHT22;5574;48.786;10.120;2023-06-24T04:45:25;15.70;99.90
11043;DHT22;5574;48.786;10.120;2023-06-24T04:47:52;15.70;99.90
11043;DHT22;5574;48.786;10.120;2023-06-24T04:50:18;15.80;99.90
11043;DHT22;5574;48.786;10.120;2023-06-24T04:52:45;15.80;99.90
11043;DHT22;5574;48.786;10.120;2023-06-24T04:55:20;15.80;99.90
11043;DHT22;5574;48.786;10.120;2023-06-24T04:57:47;15.80;99.90
11043;DHT22;5574;48.786;10.120;2023-06-24T05:00:14;15.90;99.90
11043;DHT22;5574;48.786;10.120;2023-06-24T05:02:41;15.90;99.90
11043;DHT22;5574;48.786;10.120;2023-06-24T05:05:08;15.90;99.90
11043;DHT22;5574;48.786;10.120;2023-06-24T05:07:34;15.90;99.90
11043;DHT22;5574;48.786;10.120;2023-06-24T05:10:01;16.00;99.90
11043;DHT22;5574;48.786;10.120;2023-06-24T05:12:29;16.00;99.90
11043;DHT22;5574;48.786;10.120;2023-06-24T05:14:56;16.10;99.90
11043;DHT22;5574;48.786;10.120;2023-06-24T05:17:23;16.20;99.90
11043;DHT22;5574;48.786;10.120;2023-06-24T05:19:50;16.20;99.90
11043;DHT22;5574;48.786;10.120;2023-06-24T05:22:16;16.30;99.90
11043;DHT22;5574;48.786;10.120;2023-06-24T05:24:43;16.50;99.90
11043;DHT22;5574;48.786;10.120;2023-06-24T05:27:10;16.50;99.90
11043;DHT22;5574;48.786;10.120;2023-06-24T05:29:38;16.60;99.90
11043;DHT22;5574;48.786;10.120;2023-06-24T05:32:05;16.80;99.90
11043;DHT22;5574;48.786;10.120;2023-06-24T05:34:32;16.90;99.90
11043;DHT22;5574;48.786;10.120;2023-06-24T05:36:59;17.00;99.90
11043;DHT22;5574;48.786;10.120;2023-06-24T05:39:26;17.10;99.90
11043;DHT22;5574;48.786;10.120;2023-06-24T05:41:52;17.20;99.90
11043;DHT22;5574;48.786;10.120;2023-06-24T05:44:19;17.30;99.90
11043;DHT22;5574;48.786;10.120;2023-06-24T05:46:48;17.30;99.90
11043;DHT22;5574;48.786;10.120;2023-06-24T05:49:14;17.40;99.90
11043;DHT22;5574;48.786;10.120;2023-06-24T05:51:41;17.50;99.90
11043;DHT22;5574;48.786;10.120;2023-06-24T05:54:08;17.60;99.90
11043;DHT22;5574;48.786;10.120;2023-06-24T05:56:34;17.70;99.90
11043;DHT22;5574;48.786;10.120;2023-06-24T05:59:01;17.80;99.90
11043;DHT22;5574;48.786;10.120;2023-06-24T06:01:28;17.90;99.90
11043;DHT22;5574;48.786;10.120;2023-06-24T06:03:56;18.00;99.90
11043;DHT22;5574;48.786;10.120;2023-06-24T06:06:23;18.20;99.90
11043;DHT22;5574;48.786;10.120;2023-06-24T06:08:49;18.30;99.90
11043;DHT22;5574;48.786;10.120;2023-06-24T06:11:16;18.40;99.90
11043;DHT22;5574;48.786;10.120;2023-06-24T06:13:43;18.40;99.90
11043;DHT22;5574;48.786;10.120;2023-06-24T06:16:09;18.50;99.90
11043;DHT22;5574;48.786;10.120;2023-06-24T06:18:36;18.70;99.90
11043;DHT22;5574;48.786;10.120;2023-06-24T06:21:04;18.80;99.90
11043;DHT22;5574;48.786;10.120;2023-06-24T06:23:31;18.90;99.90
11043;DHT22;5574;48.786;10.120;2023-06-24T06:25:58;19.10;99.90
11043;DHT22;5574;48.786;10.120;2023-06-24T06:28:24;19.20;99.90
11043;DHT22;5574;48.786;10.120;2023-06-24T06:30:51;19.30;99.90
11043;DHT22;5574;48.786;10.120;2023-06-24T06:33:18;19.40;99.90
11043;DHT22;5574;48.786;10.120;2023-06-24T06:35:44;19.50;99.90
11043;DHT22;5574;48.786;10.120;2023-06-24T06:38:12;19.60;99.90
11043;DHT22;5574;48.786;10.120;2023-06-24T06:40:39;19.70;99.90
11043;DHT22;5574;48.786;10.120;2023-06-24T06:43:06;19.70;99.90
11043;DHT22;5574;48.786;10.120;2023-06-24T06:45:33;19.80;99.90
11043;DHT22;5574;48.786;10.120;2023-06-24T06:48:00;19.80;99.90
11043;DHT22;5574;48.786;10.120;2023-06-24T06:50:26;19.90;99.90
11043;DHT22;5574;48.786;10.120;2023-06-24T06:52:53;20.00;99.90
11043;DHT22;5574;48.786;10.120;2023-06-24T06:55:21;20.00;99.90
11043;DHT22;5574;48.786;10.120;2023-06-24T06:57:48;20.10;99.90
11043;DHT22;5574;48.786;10.120;2023-06-24T07:00:15;20.20;99.90
11043;DHT22;5574;48.786;10.120;2023-06-24T07:02:41;20.30;99.90
11043;DHT22;5574;48.786;10.120;2023-06-24T07:05:08;20.40;99.90
11043;DHT22;5574;48.786;10.120;2023-06-24T07:07:37;20.40;99.90
11043;DHT22;5574;48.786;10.120;2023-06-24T07:10:04;20.40;99.90
11043;DHT22;5574;48.786;10.120;2023-06-24T07:12:32;20.60;99.90
11043;DHT22;5574;48.786;10.120;2023-06-24T07:14:59;20.70;99.90
11043;DHT22;5574;48.786;10.120;2023-06-24T07:17:25;20.70;99.90
11043;DHT22;5574;48.786;10.120;2023-06-24T07:19:52;20.80;99.90
11043;DHT22;5574;48.786;10.120;2023-06-24T07:22:19;20.80;99.90
11043;DHT22;5574;48.786;10.120;2023-06-24T07:24:45;20.90;99.90
11043;DHT22;5574;48.786;10.120;2023-06-24T07:27:12;21.00;99.90
11043;DHT22;5574;48.786;10.120;2023-06-24T07:29:40;21.10;99.90
11043;DHT22;5574;48.786;10.120;2023-06-24T07:32:14;21.20;99.90
11043;DHT22;5574;48.786;10.120;2023-06-24T07:34:40;21.30;99.90
11043;DHT22;5574;48.786;10.120;2023-06-24T07:37:07;21.30;99.90
11043;DHT22;5574;48.786;10.120;2023-06-24T07:39:34;21.40;99.60
11043;DHT22;5574;48.786;10.120;2023-06-24T07:42:00;21.50;99.90
11043;DHT22;5574;48.786;10.120;2023-06-24T07:44:27;21.50;99.90
11043;DHT22;5574;48.786;10.120;2023-06-24T07:46:55;21.60;99.60
11043;DHT22;5574;48.786;10.120;2023-06-24T07:49:22;21.80;99.90
11043;DHT22;5574;48.786;10.120;2023-06-24T07:51:48;21.80;99.30
11043;DHT22;5574;48.786;10.120;2023-06-24T07:54:15;21.90;98.90
11043;DHT22;5574;48.786;10.120;2023-06-24T07:56:42;22.00;99.90
11043;DHT22;5574;48.786;10.120;2023-06-24T07:59:08;22.10;99.10
11043;DHT22;5574;48.786;10.120;2023-06-24T08:01:35;22.30;99.20
11043;DHT22;5574;48.786;10.120;2023-06-24T08:04:03;22.40;99.10
11043;DHT22;5574;48.786;10.120;2023-06-24T08:06:30;22.50;97.90
11043;DHT22;5574;48.786;10.120;2023-06-24T08:08:57;22.60;99.00
11043;DHT22;5574;48.786;10.120;2023-06-24T08:11:24;22.70;97.50
11043;DHT22;5574;48.786;10.120;2023-06-24T08:13:50;22.80;98.40
11043;DHT22;5574;48.786;10.120;2023-06-24T08:16:17;22.90;98.60
11043;DHT22;5574;48.786;10.120;2023-06-24T08:18:45;23.00;98.30
11043;DHT22;5574;48.786;10.120;2023-06-24T08:21:13;22.90;97.30
11043;DHT22;5574;48.786;10.120;2023-06-24T08:23:40;23.10;96.50
11043;DHT22;5574;48.786;10.120;2023-06-24T08:26:07;23.10;97.60
11043;DHT22;5574;48.786;10.120;2023-06-24T08:28:34;23.20;96.10
11043;DHT22;5574;48.786;10.120;2023-06-24T08:31:01;23.30;97.20
11043;DHT22;5574;48.786;10.120;2023-06-24T08:33:28;23.40;97.30
11043;DHT22;5574;48.786;10.120;2023-06-24T08:35:54;23.20;97.00
11043;DHT22;5574;48.786;10.120;2023-06-24T08:38:22;23.30;96.10
11043;DHT22;5574;48.786;10.120;2023-06-24T08:40:49;23.40;96.60
11043;DHT22;5574;48.786;10.120;2023-06-24T08:43:16;23.50;96.20
11043;DHT22;5574;48.786;10.120;2023-06-24T08:45:43;23.30;97.30
11043;DHT22;5574;48.786;10.120;2023-06-24T08:48:10;23.40;97.30
11043;DHT22;5574;48.786;10.120;2023-06-24T08:50:43;23.40;94.80
11043;DHT22;5574;48.786;10.120;2023-06-24T08:53:13;23.10;94.50
11043;DHT22;5574;48.786;10.120;2023-06-24T08:55:44;22.70;94.00
11043;DHT22;5574;48.786;10.120;2023-06-24T08:58:12;22.40;93.80
11043;DHT22;5574;48.786;10.120;2023-06-24T09:00:39;22.10;95.00
11043;DHT22;5574;48.786;10.120;2023-06-24T09:03:08;22.00;96.20
11043;DHT22;5574;48.786;10.120;2023-06-24T09:05:34;21.90;97.10
11043;DHT22;5574;48.786;10.120;2023-06-24T09:08:01;21.80;95.80
11043;DHT22;5574;48.786;10.120;2023-06-24T09:10:32;21.80;97.70
11043;DHT22;5574;48.786;10.120;2023-06-24T09:13:00;21.70;96.30
11043;DHT22;5574;48.786;10.120;2023-06-24T09:15:30;21.70;96.50
11043;DHT22;5574;48.786;10.120;2023-06-24T09:17:57;21.70;97.20
11043;DHT22;5574;48.786;10.120;2023-06-24T09:20:26;21.60;97.30
11043;DHT22;5574;48.786;10.120;2023-06-24T09:22:57;21.60;95.80
11043;DHT22;5574;48.786;10.120;2023-06-24T09:25:24;21.60;97.50
11043;DHT22;5574;48.786;10.120;2023-06-24T09:27:51;21.60;96.60
11043;DHT22;5574;48.786;10.120;2023-06-24T09:30:21;21.50;96.30
11043;DHT22;5574;48.786;10.120;2023-06-24T09:32:49;21.80;96.80
11043;DHT22;5574;48.786;10.120;2023-06-24T09:35:18;22.20;96.50
11043;DHT22;5574;48.786;10.120;2023-06-24T09:37:49;22.70;98.20
11043;DHT22;5574;48.786;10.120;2023-06-24T09:40:16;23.00;95.40
11043;DHT22;5574;48.786;10.120;2023-06-24T09:42:48;23.20;95.70
11043;DHT22;5574;48.786;10.120;2023-06-24T09:45:22;22.90;94.00
11043;DHT22;5574;48.786;10.120;2023-06-24T09:47:48;22.70;98.30
11043;DHT22;5574;48.786;10.120;2023-06-24T09:50:15;22.90;96.20
11043;DHT22;5574;48.786;10.120;2023-06-24T09:52:43;23.00;95.20
11043;DHT22;5574;48.786;10.120;2023-06-24T09:55:13;22.90;97.00
11043;DHT22;5574;48.786;10.120;2023-06-24T09:57:41;23.20;96.10
11043;DHT22;5574;48.786;10.120;2023-06-24T10:00:10;23.50;95.50
11043;DHT22;5574;48.786;10.120;2023-06-24T10:02:38;23.80;94.90
11043;DHT22;5574;48.786;10.120;2023-06-24T10:05:05;24.00;93.60
11043;DHT22;5574;48.786;10.120;2023-06-24T10:07:33;24.20;92.60
11043;DHT22;5574;48.786;10.120;2023-06-24T10:10:02;24.20;91.00
11043;DHT22;5574;48.786;10.120;2023-06-24T10:12:29;24.30;91.50
11043;DHT22;5574;48.786;10.120;2023-06-24T10:14:57;24.10;90.00
11043;DHT22;5574;48.786;10.120;2023-06-24T10:17:24;24.40;90.90
11043;DHT22;5574;48.786;10.120;2023-06-24T10:19:53;24.50;88.10
11043;DHT22;5574;48.786;10.120;2023-06-24T10:22:22;24.60;87.80
11043;DHT22;5574;48.786;10.120;2023-06-24T10:24:51;24.80;91.10
11043;DHT22;5574;48.786;10.120;2023-06-24T10:27:20;24.50;86.40
11043;DHT22;5574;48.786;10.120;2023-06-24T10:29:49;24.40;85.20
11043;DHT22;5574;48.786;10.120;2023-06-24T10:32:17;24.70;88.50
11043;DHT22;5574;48.786;10.120;2023-06-24T10:34:44;24.80;83.90
11043;DHT22;5574;48.786;10.120;2023-06-24T10:37:16;25.00;86.40
11043;DHT22;5574;48.786;10.120;2023-06-24T10:39:49;25.00;81.60
11043;DHT22;5574;48.786;10.120;2023-06-24T10:42:30;24.60;81.50
11043;DHT22;5574;48.786;10.120;2023-06-24T10:44:58;24.50;84.50
11043;DHT22;5574;48.786;10.120;2023-06-24T10:47:26;24.80;85.70
11043;DHT22;5574;48.786;10.120;2023-06-24T10:49:53;24.80;82.70
11043;DHT22;5574;48.786;10.120;2023-06-24T10:52:22;25.10;86.90
11043;DHT22;5574;48.786;10.120;2023-06-24T10:54:50;25.20;78.90
11043;DHT22;5574;48.786;10.120;2023-06-24T10:57:21;25.40;82.70
11043;DHT22;5574;48.786;10.120;2023-06-24T10:59:49;25.50;83.60
11043;DHT22;5574;48.786;10.120;2023-06-24T11:02:17;25.70;86.40
11043;DHT22;5574;48.786;10.120;2023-06-24T11:04:44;25.70;83.30
11043;DHT22;5574;48.786;10.120;2023-06-24T11:07:11;25.20;82.20
11043;DHT22;5574;48.786;10.120;2023-06-24T11:09:40;25.00;84.70
11043;DHT22;5574;48.786;10.120;2023-06-24T11:12:09;24.60;85.90
11043;DHT22;5574;48.786;10.120;2023-06-24T11:14:36;24.70;83.40
11043;DHT22;5574;48.786;10.120;2023-06-24T11:17:03;24.90;80.50
11043;DHT22;5574;48.786;10.120;2023-06-24T11:19:30;25.00;81.60
11043;DHT22;5574;48.786;10.120;2023-06-24T11:21:59;25.50;84.50
11043;DHT22;5574;48.786;10.120;2023-06-24T11:24:27;25.50;78.30
11043;DHT22;5574;48.786;10.120;2023-06-24T11:26:55;25.80;77.60
11043;DHT22;5574;48.786;10.120;2023-06-24T11:29:22;26.00;79.80
11043;DHT22;5574;48.786;10.120;2023-06-24T11:31:49;25.90;78.90
11043;DHT22;5574;48.786;10.120;2023-06-24T11:34:16;26.00;78.40
11043;DHT22;5574;48.786;10.120;2023-06-24T11:36:43;26.20;81.60
11043;DHT22;5574;48.786;10.120;2023-06-24T11:39:20;25.80;80.60
11043;DHT22;5574;48.786;10.120;2023-06-24T11:41:47;25.50;88.30
11043;DHT22;5574;48.786;10.120;2023-06-24T11:44:17;25.30;88.90
11043;DHT22;5574;48.786;10.120;2023-06-24T11:46:44;24.80;80.30
11043;DHT22;5574;48.786;10.120;2023-06-24T11:49:11;24.70;80.50
11043;DHT22;5574;48.786;10.120;2023-06-24T11:51:46;24.70;82.60
11043;DHT22;5574;48.786;10.120;2023-06-24T11:54:15;24.70;83.50
11043;DHT22;5574;48.786;10.120;2023-06-24T11:56:43;24.70;83.70
11043;DHT22;5574;48.786;10.120;2023-06-24T11:59:21;25.10;78.90
11043;DHT22;5574;48.786;10.120;2023-06-24T12:01:53;25.60;79.40
11043;DHT22;5574;48.786;10.120;2023-06-24T12:04:21;26.00;80.70
11043;DHT22;5574;48.786;10.120;2023-06-24T12:06:53;26.20;81.90
11043;DHT22;5574;48.786;10.120;2023-06-24T12:09:20;26.00;80.80
11043;DHT22;5574;48.786;10.120;2023-06-24T12:11:46;26.20;80.90
11043;DHT22;5574;48.786;10.120;2023-06-24T12:14:13;26.30;81.00
11043;DHT22;5574;48.786;10.120;2023-06-24T12:16:41;26.30;77.00
11043;DHT22;5574;48.786;10.120;2023-06-24T12:19:08;26.30;80.20
11043;DHT22;5574;48.786;10.120;2023-06-24T12:21:35;26.40;83.50
11043;DHT22;5574;48.786;10.120;2023-06-24T12:24:02;26.50;79.60
11043;DHT22;5574;48.786;10.120;2023-06-24T12:26:29;26.60;78.90
11043;DHT22;5574;48.786;10.120;2023-06-24T12:28:55;26.80;77.80
11043;DHT22;5574;48.786;10.120;2023-06-24T12:31:23;26.70;77.60
11043;DHT22;5574;48.786;10.120;2023-06-24T12:33:51;26.80;76.10
11043;DHT22;5574;48.786;10.120;2023-06-24T12:36:18;26.80;75.60
11043;DHT22;5574;48.786;10.120;2023-06-24T12:38:45;27.00;76.40
11043;DHT22;5574;48.786;10.120;2023-06-24T12:41:12;27.20;77.20
11043;DHT22;5574;48.786;10.120;2023-06-24T12:43:39;27.20;73.10
11043;DHT22;5574;48.786;10.120;2023-06-24T12:46:06;27.30;73.80
11043;DHT22;5574;48.786;10.120;2023-06-24T12:48:32;27.10;73.40
11043;DHT22;5574;48.786;10.120;2023-06-24T12:51:00;27.30;72.40
11043;DHT22;5574;48.786;10.120;2023-06-24T12:53:27;27.20;72.50
11043;DHT22;5574;48.786;10.120;2023-06-24T12:55:54;27.10;74.80
11043;DHT22;5574;48.786;10.120;2023-06-24T12:58:23;27.00;75.60
11043;DHT22;5574;48.786;10.120;2023-06-24T13:00:50;26.80;73.10
11043;DHT22;5574;48.786;10.120;2023-06-24T13:03:17;26.90;75.70
11043;DHT22;5574;48.786;10.120;2023-06-24T13:05:43;26.90;72.40
11043;DHT22;5574;48.786;10.120;2023-06-24T13:08:11;26.90;73.90
11043;DHT22;5574;48.786;10.120;2023-06-24T13:10:38;26.70;71.50
11043;DHT22;5574;48.786;10.120;2023-06-24T13:13:05;26.40;72.80
11043;DHT22;5574;48.786;10.120;2023-06-24T13:15:31;26.00;75.30
11043;DHT22;5574;48.786;10.120;2023-06-24T13:17:58;25.90;75.00
11043;DHT22;5574;48.786;10.120;2023-06-24T13:20:25;26.20;74.50
11043;DHT22;5574;48.786;10.120;2023-06-24T13:22:51;26.10;71.90
11043;DHT22;5574;48.786;10.120;2023-06-24T13:25:19;25.80;75.40
11043;DHT22;5574;48.786;10.120;2023-06-24T13:27:46;25.70;78.10
11043;DHT22;5574;48.786;10.120;2023-06-24T13:30:14;25.80;72.30
11043;DHT22;5574;48.786;10.120;2023-06-24T13:32:41;26.10;71.60
11043;DHT22;5574;48.786;10.120;2023-06-24T13:35:09;26.50;71.60
11043;DHT22;5574;48.786;10.120;2023-06-24T13:37:36;26.60;73.20
11043;DHT22;5574;48.786;10.120;2023-06-24T13:40:05;26.70;72.60
11043;DHT22;5574;48.786;10.120;2023-06-24T13:42:33;26.60;73.60
11043;DHT22;5574;48.786;10.120;2023-06-24T13:45:00;26.80;70.00
11043;DHT22;5574;48.786;10.120;2023-06-24T13:47:27;26.90;70.00
11043;DHT22;5574;48.786;10.120;2023-06-24T13:49:54;27.00;69.30
11043;DHT22;5574;48.786;10.120;2023-06-24T13:52:20;27.10;69.70
11043;DHT22;5574;48.786;10.120;2023-06-24T13:54:47;27.20;70.90
11043;DHT22;5574;48.786;10.120;2023-06-24T13:57:14;27.20;69.70
11043;DHT22;5574;48.786;10.120;2023-06-24T13:59:42;26.80;72.40
11043;DHT22;5574;48.786;10.120;2023-06-24T14:02:09;26.70;72.70
11043;DHT22;5574;48.786;10.120;2023-06-24T14:04:37;26.50;73.60
11043;DHT22;5574;48.786;10.120;2023-06-24T14:07:05;26.10;73.20
11043;DHT22;5574;48.786;10.120;2023-06-24T14:09:32;25.80;74.20
11043;DHT22;5574;48.786;10.120;2023-06-24T14:11:58;25.50;75.00
11043;DHT22;5574;48.786;10.120;2023-06-24T14:14:25;25.20;72.40
11043;DHT22;5574;48.786;10.120;2023-06-24T14:16:53;25.20;72.80
11043;DHT22;5574;48.786;10.120;2023-06-24T14:19:20;25.30;73.30
11043;DHT22;5574;48.786;10.120;2023-06-24T14:21:46;25.20;74.20
11043;DHT22;5574;48.786;10.120;2023-06-24T14:24:13;25.40;74.20
11043;DHT22;5574;48.786;10.120;2023-06-24T14:26:40;25.50;72.90
11043;DHT22;5574;48.786;10.120;2023-06-24T14:29:07;25.50;73.80
11043;DHT22;5574;48.786;10.120;2023-06-24T14:31:33;25.70;76.10
11043;DHT22;5574;48.786;10.120;2023-06-24T14:34:01;25.80;72.70
11043;DHT22;5574;48.786;10.120;2023-06-24T14:36:28;26.10;69.90
11043;DHT22;5574;48.786;10.120;2023-06-24T14:38:54;26.20;69.70
11043;DHT22;5574;48.786;10.120;2023-06-24T14:41:21;26.30;68.60
11043;DHT22;5574;48.786;10.120;2023-06-24T14:43:48;26.40;67.90
11043;DHT22;5574;48.786;10.120;2023-06-24T14:46:14;26.60;72.50
11043;DHT22;5574;48.786;10.120;2023-06-24T14:48:41;26.80;76.70
11043;DHT22;5574;48.786;10.120;2023-06-24T14:51:09;26.90;73.30
11043;DHT22;5574;48.786;10.120;2023-06-24T14:53:36;26.70;71.60
11043;DHT22;5574;48.786;10.120;2023-06-24T14:56:03;26.70;74.10
11043;DHT22;5574;48.786;10.120;2023-06-24T14:58:29;26.70;72.30
11043;DHT22;5574;48.786;10.120;2023-06-24T15:00:56;26.80;72.70
11043;DHT22;5574;48.786;10.120;2023-06-24T15:03:23;26.80;69.40
11043;DHT22;5574;48.786;10.120;2023-06-24T15:05:49;26.90;72.00
11043;DHT22;5574;48.786;10.120;2023-06-24T15:08:17;26.80;69.70
11043;DHT22;5574;48.786;10.120;2023-06-24T15:10:44;26.70;70.00
11043;DHT22;5574;48.786;10.120;2023-06-24T15:13:11;26.70;68.90
11043;DHT22;5574;48.786;10.120;2023-06-24T15:15:37;26.60;68.90
11043;DHT22;5574;48.786;10.120;2023-06-24T15:18:04;26.60;68.50
11043;DHT22;5574;48.786;10.120;2023-06-24T15:20:31;26.60;66.50
11043;DHT22;5574;48.786;10.120;2023-06-24T15:22:57;26.50;66.30
11043;DHT22;5574;48.786;10.120;2023-06-24T15:25:25;26.50;68.90
11043;DHT22;5574;48.786;10.120;2023-06-24T15:27:53;26.40;69.10
11043;DHT22;5574;48.786;10.120;2023-06-24T15:30:19;26.30;69.00
11043;DHT22;5574;48.786;10.120;2023-06-24T15:32:46;26.10;70.20